Time;durP1;ratioP1;P1;durP2;ratioP2;P2;SDS_P1;SDS_P2;PMS_P1;PMS_P2;Temp;Humidity;BMP_temperature;BMP_pressure;BME280_temperature;BME280_humidity;BME280_pressure;Samples;Min_cycle;Max_cycle;Signal;HPM_P1;HPM_P2
2022/06/24 00:01:13;;;;;;;7.97;4.13;;;21.40;99.90;;;;;;6279625;22;20369;-91
2022/06/24 00:03:39;;;;;;;4.07;3.53;;;21.40;99.90;;;;;;6279817;22;20390;-91
2022/06/24 00:06:16;;;;;;;4.10;3.70;;;21.30;99.90;;;;;;6252312;22;20981;-92
2022/06/24 00:08:52;;;;;;;3.70;3.40;;;21.30;99.90;;;;;;6280007;22;20376;-91
2022/06/24 00:11:23;;;;;;;3.93;3.53;;;21.30;99.90;;;;;;6252401;22;20439;-89
2022/06/24 00:13:48;;;;;;;4.50;4.10;;;21.20;99.90;;;;;;6252590;22;20386;-91
2022/06/24 00:16:14;;;;;;;3.60;3.10;;;21.20;99.90;;;;;;6279745;22;20374;-89
2022/06/24 00:18:40;;;;;;;3.60;3.33;;;21.10;99.90;;;;;;6252456;22;20160;-88
2022/06/24 00:21:14;;;;;;;3.90;3.50;;;21.00;99.90;;;;;;6252753;22;20152;-91
2022/06/24 00:23:40;;;;;;;3.27;3.07;;;21.00;99.90;;;;;;6278952;22;20158;-92
2022/06/24 00:26:06;;;;;;;5.07;3.67;;;20.90;99.90;;;;;;6280193;22;20428;-92
2022/06/24 00:28:32;;;;;;;3.80;3.33;;;20.90;99.90;;;;;;6253265;22;20157;-88
2022/06/24 00:31:01;;;;;;;3.73;3.43;;;20.90;99.90;;;;;;6253446;22;20386;-92
2022/06/24 00:33:33;;;;;;;5.13;3.70;;;20.90;99.90;;;;;;6256481;22;20715;-91
2022/06/24 00:35:59;;;;;;;4.00;3.57;;;20.90;99.90;;;;;;6255452;22;20393;-92
2022/06/24 00:38:36;;;;;;;4.60;3.40;;;20.80;99.90;;;;;;6282949;22;20424;-91
2022/06/24 00:41:13;;;;;;;4.03;3.43;;;20.80;99.90;;;;;;6258471;22;20391;-91
2022/06/24 00:43:49;;;;;;;4.00;3.60;;;20.80;99.90;;;;;;6299807;22;20357;-92
2022/06/24 00:46:25;;;;;;;3.10;2.90;;;20.80;99.90;;;;;;6287813;22;20417;-90
2022/06/24 00:48:57;;;;;;;4.00;3.63;;;20.70;99.90;;;;;;6246581;23;20441;-91
2022/06/24 00:51:33;;;;;;;4.90;3.87;;;20.70;99.90;;;;;;6246349;23;20386;-89
2022/06/24 00:54:05;;;;;;;5.40;3.90;;;20.70;99.90;;;;;;6247151;23;20701;-92
2022/06/24 00:56:32;;;;;;;8.63;3.50;;;20.70;99.90;;;;;;6247585;23;20895;-89
2022/06/24 00:59:03;;;;;;;5.77;3.23;;;20.70;99.90;;;;;;6246306;23;20705;-89
2022/06/24 01:01:30;;;;;;;3.33;3.00;;;20.70;99.90;;;;;;6246727;23;20414;-89
2022/06/24 01:03:57;;;;;;;4.00;3.60;;;20.60;99.90;;;;;;6246078;23;20397;-92
2022/06/24 01:06:24;;;;;;;4.27;3.67;;;20.60;99.90;;;;;;6247739;23;20524;-89
2022/06/24 01:08:49;;;;;;;3.40;3.00;;;20.60;99.90;;;;;;6247804;23;20386;-92
2022/06/24 01:11:43;;;;;;;3.63;3.33;;;20.60;99.90;;;;;;6246530;23;20386;-88
2022/06/24 01:14:10;;;;;;;4.07;3.70;;;20.50;99.90;;;;;;6246785;23;20160;-91
2022/06/24 01:16:36;;;;;;;7.40;3.20;;;20.50;99.90;;;;;;6248352;23;20417;-92
2022/06/24 01:19:08;;;;;;;3.80;3.50;;;20.50;99.90;;;;;;6247924;23;20486;-88
2022/06/24 01:21:39;;;;;;;3.53;3.23;;;20.50;99.90;;;;;;6249096;23;20414;-88
2022/06/24 01:24:12;;;;;;;3.77;3.47;;;20.40;99.90;;;;;;6248984;23;20377;-92
2022/06/24 01:26:41;;;;;;;3.40;3.10;;;20.40;99.90;;;;;;6248530;23;20484;-89
2022/06/24 01:29:07;;;;;;;3.70;3.10;;;20.30;99.90;;;;;;6249185;23;20384;-89
2022/06/24 01:31:33;;;;;;;5.00;3.40;;;20.30;99.90;;;;;;6250015;23;20413;-92
2022/06/24 01:33:59;;;;;;;3.87;3.57;;;20.30;99.90;;;;;;6248792;23;20877;-88
2022/06/24 01:36:25;;;;;;;3.20;2.90;;;20.20;99.90;;;;;;6248528;23;20427;-91
2022/06/24 01:38:51;;;;;;;4.20;3.80;;;20.20;99.90;;;;;;6248865;23;20414;-91
2022/06/24 01:41:17;;;;;;;4.33;3.93;;;20.10;99.90;;;;;;6250052;23;20376;-90
2022/06/24 01:43:44;;;;;;;3.93;3.53;;;20.10;99.90;;;;;;6249128;23;20385;-89
2022/06/24 01:46:11;;;;;;;3.83;3.50;;;20.00;99.90;;;;;;6248067;23;20498;-92
2022/06/24 01:48:37;;;;;;;3.80;3.40;;;20.00;99.90;;;;;;6248450;23;20487;-91
2022/06/24 01:51:04;;;;;;;4.20;3.83;;;20.00;99.90;;;;;;6249419;23;20371;-92
2022/06/24 01:53:29;;;;;;;3.03;2.80;;;20.00;99.90;;;;;;6251903;22;20419;-90
2022/06/24 01:55:55;;;;;;;7.80;3.90;;;20.00;99.90;;;;;;6249178;23;20480;-90
2022/06/24 01:58:21;;;;;;;3.93;3.63;;;19.90;99.90;;;;;;6249640;23;20185;-91
2022/06/24 02:00:46;;;;;;;3.43;3.13;;;19.90;99.90;;;;;;6248756;23;20159;-90
2022/06/24 02:03:12;;;;;;;3.67;3.37;;;19.80;99.90;;;;;;6250124;23;20606;-92
2022/06/24 02:05:40;;;;;;;3.73;3.40;;;19.80;99.90;;;;;;6248429;23;20160;-89
2022/06/24 02:08:06;;;;;;;3.50;3.20;;;19.80;99.90;;;;;;6249341;23;20210;-91
2022/06/24 02:13:28;;;;;;;3.63;3.33;;;19.80;99.90;;;;;;6265813;23;20419;-91
2022/06/24 02:15:58;;;;;;;4.17;3.77;;;19.80;99.90;;;;;;6250663;23;20401;-91
2022/06/24 02:18:25;;;;;;;6.40;3.20;;;19.70;99.90;;;;;;6252063;23;20853;-88
2022/06/24 02:20:52;;;;;;;4.20;3.30;;;19.70;99.90;;;;;;6266393;23;20379;-91
2022/06/24 02:23:21;;;;;;;4.00;3.70;;;19.70;99.90;;;;;;6266070;23;20495;-91
2022/06/24 02:25:48;;;;;;;3.83;3.30;;;19.70;99.90;;;;;;6260255;23;20401;-92
2022/06/24 02:28:14;;;;;;;5.00;3.67;;;19.70;99.90;;;;;;6265959;23;20452;-88
2022/06/24 02:30:42;;;;;;;3.83;3.53;;;19.70;99.90;;;;;;6266799;23;20871;-89
2022/06/24 02:33:08;;;;;;;4.17;3.83;;;19.70;99.90;;;;;;6264328;23;20430;-88
2022/06/24 02:35:34;;;;;;;4.30;3.90;;;19.70;99.90;;;;;;6250658;23;20383;-88
2022/06/24 02:38:00;;;;;;;4.30;3.57;;;19.70;99.90;;;;;;6250649;23;20711;-88
2022/06/24 02:43:19;;;;;;;4.13;3.73;;;19.70;99.90;;;;;;6251934;23;20213;-88
2022/06/24 02:45:49;;;;;;;4.27;3.67;;;19.70;99.90;;;;;;6251641;23;20382;-92
2022/06/24 02:48:17;;;;;;;3.60;2.87;;;19.70;99.90;;;;;;6250867;23;20459;-91
2022/06/24 02:50:53;;;;;;;3.50;3.20;;;19.70;99.90;;;;;;6251109;23;20384;-89
2022/06/24 02:53:19;;;;;;;3.40;3.20;;;19.70;99.90;;;;;;6251045;23;20457;-88
2022/06/24 02:55:48;;;;;;;4.57;4.07;;;19.70;99.90;;;;;;6251042;23;20387;-89
2022/06/24 02:58:14;;;;;;;4.33;3.40;;;19.70;99.90;;;;;;6251215;23;20885;-89
2022/06/24 03:00:41;;;;;;;3.97;3.50;;;19.70;99.90;;;;;;6251179;23;20888;-90
2022/06/24 03:03:11;;;;;;;3.73;3.33;;;19.70;99.90;;;;;;6251148;23;20471;-89
2022/06/24 03:05:40;;;;;;;4.07;3.33;;;19.60;99.90;;;;;;6251094;23;20387;-88
2022/06/24 03:08:07;;;;;;;9.67;3.20;;;19.60;99.90;;;;;;6255285;23;20441;-91
2022/06/24 03:10:33;;;;;;;4.50;3.80;;;19.70;99.90;;;;;;6247553;23;20372;-88
2022/06/24 03:12:59;;;;;;;3.93;3.53;;;19.60;99.90;;;;;;6248668;23;20405;-92
2022/06/24 03:15:25;;;;;;;4.00;3.60;;;19.60;99.90;;;;;;6247226;23;20382;-89
2022/06/24 03:17:50;;;;;;;4.30;3.60;;;19.60;99.90;;;;;;6249050;23;20178;-92
2022/06/24 03:20:16;;;;;;;4.40;4.10;;;19.60;99.90;;;;;;6247392;23;20158;-89
2022/06/24 03:22:42;;;;;;;4.30;3.63;;;19.60;99.90;;;;;;6247241;23;20183;-88
2022/06/24 03:25:08;;;;;;;3.57;3.27;;;19.60;99.90;;;;;;6248665;23;20159;-90
2022/06/24 03:27:35;;;;;;;3.63;3.33;;;19.60;99.90;;;;;;6248028;23;20206;-88
2022/06/24 03:30:01;;;;;;;4.10;3.40;;;19.60;99.90;;;;;;6248236;23;20384;-88
2022/06/24 03:32:27;;;;;;;3.90;3.50;;;19.60;99.90;;;;;;6248670;23;20486;-88
2022/06/24 03:34:53;;;;;;;4.70;4.23;;;19.60;99.90;;;;;;6248190;23;20369;-88
2022/06/24 03:37:19;;;;;;;3.20;2.90;;;19.60;99.90;;;;;;6250255;23;20428;-87
2022/06/24 03:39:45;;;;;;;5.07;3.00;;;19.60;99.90;;;;;;6248450;23;20166;-91
2022/06/24 03:42:11;;;;;;;3.87;3.50;;;19.60;99.90;;;;;;6248763;23;20264;-88
2022/06/24 03:44:36;;;;;;;4.33;3.90;;;19.60;99.90;;;;;;6249903;23;20401;-89
2022/06/24 03:47:02;;;;;;;4.03;3.53;;;19.60;99.90;;;;;;6253109;22;20281;-88
2022/06/24 03:49:28;;;;;;;4.43;3.20;;;19.60;99.90;;;;;;6280667;22;20180;-88
2022/06/24 03:51:54;;;;;;;3.30;3.07;;;19.70;99.90;;;;;;6280889;22;20416;-92
2022/06/24 03:54:21;;;;;;;4.27;3.40;;;19.70;99.90;;;;;;6254256;22;20395;-90
2022/06/24 03:56:46;;;;;;;3.53;3.23;;;19.70;99.90;;;;;;6253531;22;20422;-91
2022/06/24 03:59:12;;;;;;;4.50;3.70;;;19.80;99.90;;;;;;6254355;22;20409;-90
2022/06/24 04:01:38;;;;;;;3.53;3.23;;;19.80;99.90;;;;;;6255784;22;20187;-88
2022/06/24 04:04:04;;;;;;;5.93;2.97;;;19.80;99.90;;;;;;6282185;22;20146;-89
2022/06/24 04:06:29;;;;;;;4.37;2.93;;;19.80;99.90;;;;;;6280304;22;20186;-92
2022/06/24 04:08:56;;;;;;;4.33;3.60;;;19.80;99.90;;;;;;6253263;22;20391;-89
2022/06/24 04:11:22;;;;;;;3.33;3.03;;;19.90;99.90;;;;;;6280802;22;20150;-88
2022/06/24 04:13:48;;;;;;;3.30;3.00;;;19.90;99.90;;;;;;6280889;22;20383;-88
2022/06/24 04:16:13;;;;;;;6.17;3.20;;;20.00;99.90;;;;;;6254935;22;20727;-91
2022/06/24 04:18:39;;;;;;;3.60;3.30;;;20.00;99.90;;;;;;6257523;22;20159;-91
2022/06/24 04:21:15;;;;;;;4.60;3.17;;;20.00;99.90;;;;;;6261484;22;20182;-88
2022/06/24 04:23:42;;;;;;;6.80;3.60;;;20.10;99.90;;;;;;6258426;22;20467;-92
2022/06/24 04:26:09;;;;;;;3.30;3.00;;;20.10;99.90;;;;;;6265213;22;20782;-92
2022/06/24 04:28:35;;;;;;;4.43;2.97;;;20.10;99.90;;;;;;6252521;22;20496;-88
2022/06/24 04:31:01;;;;;;;4.03;3.20;;;20.20;99.90;;;;;;6252484;22;20380;-91
2022/06/24 04:33:27;;;;;;;7.30;3.40;;;20.20;99.90;;;;;;6252694;22;20592;-91
2022/06/24 04:35:52;;;;;;;3.57;3.27;;;20.30;99.90;;;;;;6252661;22;20150;-89
2022/06/24 04:38:18;;;;;;;5.73;3.13;;;20.30;99.90;;;;;;6252282;22;20265;-92
2022/06/24 04:40:44;;;;;;;3.97;3.60;;;20.40;99.90;;;;;;6252021;22;20155;-92
2022/06/24 04:43:10;;;;;;;3.70;2.87;;;20.40;99.90;;;;;;6251642;22;20435;-89
2022/06/24 04:45:36;;;;;;;4.07;3.50;;;20.50;99.90;;;;;;6250270;22;20159;-90
2022/06/24 04:48:02;;;;;;;4.90;4.30;;;20.50;99.90;;;;;;6251448;22;20663;-91
2022/06/24 04:50:28;;;;;;;4.63;4.23;;;20.60;99.90;;;;;;6252925;22;20373;-90
2022/06/24 04:52:54;;;;;;;4.07;3.77;;;20.60;99.90;;;;;;6253870;22;20451;-91
2022/06/24 04:55:20;;;;;;;3.93;2.87;;;20.70;99.90;;;;;;6279577;22;20153;-88
2022/06/24 04:57:47;;;;;;;4.40;3.63;;;20.80;99.90;;;;;;6252944;22;20413;-88
2022/06/24 05:00:13;;;;;;;4.33;3.73;;;20.80;99.90;;;;;;6279514;22;20176;-92
2022/06/24 05:02:41;;;;;;;3.23;2.93;;;20.90;99.90;;;;;;6251951;22;20420;-88
2022/06/24 05:05:07;;;;;;;3.73;3.43;;;20.90;99.90;;;;;;6253073;22;20858;-89
2022/06/24 05:07:33;;;;;;;3.50;3.13;;;21.00;99.90;;;;;;6250947;22;20449;-88
2022/06/24 05:09:59;;;;;;;4.03;3.17;;;21.10;99.90;;;;;;6252741;22;20866;-92
2022/06/24 05:12:24;;;;;;;3.00;2.80;;;21.10;99.90;;;;;;6279874;22;20172;-92
2022/06/24 05:14:50;;;;;;;4.13;3.83;;;21.20;99.90;;;;;;6252470;22;20205;-88
2022/06/24 05:17:16;;;;;;;2.70;2.50;;;21.30;99.90;;;;;;6252996;22;20274;-92
2022/06/24 05:19:41;;;;;;;4.63;3.20;;;21.30;99.90;;;;;;6253281;22;20199;-87
2022/06/24 05:22:07;;;;;;;3.53;2.60;;;21.40;99.90;;;;;;6280116;22;20180;-91
2022/06/24 05:24:33;;;;;;;3.43;3.13;;;21.50;99.90;;;;;;6281013;22;20145;-88
2022/06/24 05:26:59;;;;;;;2.90;2.57;;;21.50;99.90;;;;;;6253605;22;20464;-88
2022/06/24 05:29:25;;;;;;;3.63;3.30;;;21.60;99.90;;;;;;6253926;22;20232;-88
2022/06/24 05:31:51;;;;;;;2.50;2.33;;;21.70;99.90;;;;;;6267873;22;20180;-91
2022/06/24 05:34:16;;;;;;;2.90;2.70;;;21.80;99.90;;;;;;6255870;22;20163;-89
2022/06/24 05:36:42;;;;;;;3.03;2.80;;;21.80;99.90;;;;;;6278729;22;20401;-92
2022/06/24 05:39:09;;;;;;;2.97;2.70;;;21.90;99.90;;;;;;6251293;22;20156;-91
2022/06/24 05:41:39;;;;;;;3.77;2.73;;;22.00;99.90;;;;;;6278256;22;20440;-92
2022/06/24 05:44:05;;;;;;;3.17;2.60;;;22.10;99.90;;;;;;6251369;22;20779;-92
2022/06/24 05:46:30;;;;;;;2.80;2.60;;;22.10;99.90;;;;;;6278385;22;20421;-88
2022/06/24 05:48:57;;;;;;;4.07;2.83;;;22.20;99.90;;;;;;6244576;23;20532;-88
2022/06/24 05:51:23;;;;;;;3.23;2.30;;;22.30;99.90;;;;;;6244036;23;20597;-88
2022/06/24 05:56:33;;;;;;;2.47;2.27;;;22.40;99.90;;;;;;6247728;23;20456;-89
2022/06/24 05:58:59;;;;;;;2.83;2.63;;;22.50;99.90;;;;;;6250634;23;20597;-89
2022/06/24 06:01:26;;;;;;;3.20;2.80;;;22.50;99.90;;;;;;6251153;23;20173;-92
2022/06/24 06:03:52;;;;;;;3.10;2.07;;;22.60;99.90;;;;;;6249156;23;20157;-92
2022/06/24 06:06:18;;;;;;;3.73;2.60;;;22.70;99.90;;;;;;6252548;23;20461;-92
2022/06/24 06:08:44;;;;;;;2.73;2.53;;;22.80;99.90;;;;;;6247823;23;20405;-90
2022/06/24 06:11:24;;;;;;;3.43;2.10;;;22.90;99.90;;;;;;6246717;23;20391;-91
2022/06/24 06:13:52;;;;;;;4.30;2.70;;;23.00;99.90;;;;;;6243610;23;20180;-89
2022/06/24 06:16:18;;;;;;;3.50;2.23;;;23.10;99.90;;;;;;6247366;22;20365;-88
2022/06/24 06:18:44;;;;;;;2.43;2.23;;;23.10;99.90;;;;;;6247181;23;20464;-92
2022/06/24 06:21:11;;;;;;;2.90;2.70;;;23.20;99.90;;;;;;6244963;23;20416;-87
2022/06/24 06:23:39;;;;;;;2.30;2.10;;;23.30;99.90;;;;;;6247391;23;20723;-89
2022/06/24 06:26:07;;;;;;;2.30;2.20;;;23.40;99.90;;;;;;6263207;23;20383;-91
2022/06/24 06:28:33;;;;;;;3.53;3.10;;;23.40;99.90;;;;;;6246476;23;20441;-92
2022/06/24 06:30:59;;;;;;;3.03;2.70;;;23.50;99.90;;;;;;6248183;23;20410;-90
2022/06/24 06:33:25;;;;;;;2.50;2.30;;;23.60;99.90;;;;;;6246448;23;20431;-88
2022/06/24 06:35:51;;;;;;;2.30;2.10;;;23.60;99.90;;;;;;6246526;23;20158;-91
2022/06/24 06:38:17;;;;;;;2.53;1.90;;;23.70;99.90;;;;;;6247659;23;20410;-92
2022/06/24 06:40:43;;;;;;;2.77;2.17;;;23.80;99.90;;;;;;6246658;23;20386;-89
2022/06/24 06:43:09;;;;;;;3.47;2.30;;;23.90;99.90;;;;;;6247970;23;20432;-88
2022/06/24 06:45:36;;;;;;;2.33;2.13;;;24.00;99.90;;;;;;6250647;23;20405;-93
2022/06/24 06:48:03;;;;;;;2.43;1.90;;;24.00;99.90;;;;;;6259333;23;20442;-88
2022/06/24 06:50:29;;;;;;;3.37;2.67;;;24.10;99.90;;;;;;6247290;22;20395;-91
2022/06/24 06:52:54;;;;;;;2.17;2.07;;;24.20;99.90;;;;;;6245478;23;20446;-89
2022/06/24 06:55:20;;;;;;;2.10;1.83;;;24.30;99.90;;;;;;6246444;23;20150;-89
2022/06/24 06:57:46;;;;;;;2.33;2.17;;;24.40;99.90;;;;;;6246221;23;20182;-88
2022/06/24 07:00:13;;;;;;;1.90;1.80;;;24.50;99.90;;;;;;6248078;23;20843;-92
2022/06/24 07:02:40;;;;;;;2.67;2.47;;;24.60;99.90;;;;;;6251474;23;20221;-88
2022/06/24 07:05:06;;;;;;;2.03;1.93;;;24.60;99.90;;;;;;6258054;23;20386;-89
2022/06/24 07:07:32;;;;;;;1.90;1.70;;;24.70;99.90;;;;;;6247364;23;20528;-92
2022/06/24 07:09:58;;;;;;;2.13;2.00;;;24.80;99.90;;;;;;6246621;23;20905;-90
2022/06/24 07:12:24;;;;;;;2.10;1.90;;;24.90;99.90;;;;;;6247699;23;20475;-93
2022/06/24 07:14:50;;;;;;;2.10;2.00;;;25.00;99.90;;;;;;6247442;23;20386;-88
2022/06/24 07:17:17;;;;;;;2.23;2.03;;;25.00;99.90;;;;;;6246542;23;20424;-89
2022/06/24 07:19:43;;;;;;;1.80;1.70;;;25.10;99.90;;;;;;6244348;23;20163;-92
2022/06/24 07:22:09;;;;;;;1.80;1.70;;;25.20;99.90;;;;;;6243975;23;20432;-89
2022/06/24 07:24:35;;;;;;;2.07;1.87;;;25.30;99.90;;;;;;6244100;23;20486;-89
2022/06/24 07:27:05;;;;;;;2.30;2.10;;;25.40;99.90;;;;;;6244908;23;20451;-92
2022/06/24 07:29:33;;;;;;;2.03;1.87;;;25.50;99.90;;;;;;6243298;23;20660;-89
2022/06/24 07:32:03;;;;;;;2.20;2.00;;;25.60;99.00;;;;;;6244286;23;20418;-89
2022/06/24 07:34:32;;;;;;;2.33;2.07;;;25.60;98.80;;;;;;6244627;23;20410;-93
2022/06/24 07:36:58;;;;;;;2.33;2.13;;;25.70;98.80;;;;;;6246957;23;20448;-91
2022/06/24 07:39:24;;;;;;;2.23;2.03;;;25.80;97.80;;;;;;6251785;23;20382;-89
2022/06/24 07:41:50;;;;;;;2.10;1.90;;;25.80;96.30;;;;;;6240783;23;20464;-93
2022/06/24 07:44:16;;;;;;;2.37;1.90;;;25.90;96.50;;;;;;6241951;23;20164;-92
2022/06/24 07:46:42;;;;;;;1.70;1.60;;;26.00;96.50;;;;;;6243103;22;20781;-89
2022/06/24 07:49:07;;;;;;;1.83;1.73;;;26.00;95.70;;;;;;6249163;22;20235;-92
2022/06/24 07:51:33;;;;;;;1.97;1.77;;;26.10;95.80;;;;;;6277738;22;20303;-89
2022/06/24 07:53:59;;;;;;;2.23;1.70;;;26.20;95.60;;;;;;6276602;22;20155;-91
2022/06/24 07:59:09;;;;;;;1.97;1.87;;;26.30;96.00;;;;;;6274891;22;20147;-89
2022/06/24 08:01:35;;;;;;;3.97;2.23;;;26.30;95.00;;;;;;6247718;22;20409;-92
2022/06/24 08:04:07;;;;;;;2.30;2.10;;;26.40;95.80;;;;;;6248245;22;20167;-91
2022/06/24 08:06:40;;;;;;;1.80;1.70;;;26.40;95.00;;;;;;6246926;22;20448;-93
2022/06/24 08:09:08;;;;;;;2.73;2.53;;;26.50;94.70;;;;;;6248633;22;20399;-92
2022/06/24 08:11:36;;;;;;;2.00;1.80;;;26.60;94.60;;;;;;6250949;22;20894;-92
2022/06/24 08:14:02;;;;;;;1.83;1.73;;;26.60;94.20;;;;;;6249880;22;20385;-93
2022/06/24 08:16:27;;;;;;;2.67;2.40;;;26.60;92.10;;;;;;6258305;22;20413;-92
2022/06/24 08:18:54;;;;;;;3.33;1.90;;;26.70;92.20;;;;;;6256585;22;20413;-89
2022/06/24 08:21:20;;;;;;;2.33;2.13;;;26.80;91.10;;;;;;6274746;22;20644;-89
2022/06/24 08:23:46;;;;;;;2.00;1.80;;;26.80;91.60;;;;;;6248385;22;20535;-92
2022/06/24 08:26:12;;;;;;;1.97;1.87;;;26.80;92.20;;;;;;6248898;22;20374;-88
2022/06/24 08:28:38;;;;;;;2.83;2.00;;;26.90;91.10;;;;;;6246435;22;20794;-93
2022/06/24 08:31:03;;;;;;;2.10;1.90;;;26.90;90.20;;;;;;6242663;22;20156;-89
2022/06/24 08:33:29;;;;;;;3.33;2.10;;;27.00;92.80;;;;;;6244915;22;20198;-92
2022/06/24 08:35:55;;;;;;;2.13;1.93;;;27.00;90.30;;;;;;6246974;22;20211;-90
2022/06/24 08:38:21;;;;;;;2.37;2.00;;;27.10;90.50;;;;;;6250811;22;20238;-89
2022/06/24 08:40:47;;;;;;;2.23;2.03;;;27.20;91.20;;;;;;6250917;22;20247;-89
2022/06/24 08:43:14;;;;;;;2.60;2.40;;;27.20;91.20;;;;;;6250211;22;20429;-89
2022/06/24 08:45:40;;;;;;;2.23;2.03;;;27.20;91.10;;;;;;6251164;22;20473;-90
2022/06/24 08:48:08;;;;;;;2.50;2.30;;;27.20;90.90;;;;;;6243993;23;20462;-89
2022/06/24 08:50:34;;;;;;;2.73;1.90;;;27.30;90.70;;;;;;6250347;23;20413;-89
2022/06/24 08:53:04;;;;;;;2.40;2.20;;;27.30;91.00;;;;;;6242829;23;20434;-89
2022/06/24 08:55:38;;;;;;;2.27;2.07;;;27.40;90.60;;;;;;6240765;23;20156;-93
2022/06/24 08:58:09;;;;;;;2.70;2.20;;;27.40;91.50;;;;;;6240160;23;20509;-92
2022/06/24 09:00:35;;;;;;;2.10;1.90;;;27.40;90.60;;;;;;6245065;23;20421;-93
2022/06/24 09:03:02;;;;;;;2.30;2.10;;;27.50;90.60;;;;;;6247711;23;20406;-92
2022/06/24 09:05:29;;;;;;;2.07;1.87;;;27.50;90.90;;;;;;6243808;23;20379;-90
2022/06/24 09:08:04;;;;;;;2.17;1.97;;;27.50;90.50;;;;;;6244142;23;20935;-90
2022/06/24 09:10:30;;;;;;;2.00;1.90;;;27.60;88.60;;;;;;6244496;23;20933;-92
2022/06/24 09:12:56;;;;;;;2.40;2.20;;;27.60;87.90;;;;;;6244576;23;20418;-90
2022/06/24 09:15:22;;;;;;;2.40;2.00;;;27.70;88.10;;;;;;6244669;23;20161;-93
2022/06/24 09:17:49;;;;;;;4.20;2.30;;;27.80;88.80;;;;;;6246501;23;20433;-92
2022/06/24 09:20:23;;;;;;;3.80;2.30;;;27.80;88.00;;;;;;6246964;23;20382;-93
2022/06/24 09:22:50;;;;;;;1.90;1.80;;;27.90;89.60;;;;;;6248159;23;20505;-92
2022/06/24 09:25:16;;;;;;;4.20;2.50;;;27.90;87.00;;;;;;6247727;23;20729;-92
2022/06/24 09:27:44;;;;;;;2.60;2.37;;;28.00;84.30;;;;;;6246569;23;20455;-89
2022/06/24 09:30:15;;;;;;;2.30;2.10;;;28.10;84.50;;;;;;6244793;23;20481;-90
2022/06/24 09:32:52;;;;;;;2.70;2.50;;;28.20;85.50;;;;;;6251613;23;20418;-93
2022/06/24 09:35:18;;;;;;;2.43;2.03;;;28.30;84.00;;;;;;6240460;23;20517;-92
2022/06/24 09:37:48;;;;;;;2.40;2.20;;;28.30;83.00;;;;;;6242745;23;20419;-89
2022/06/24 09:40:26;;;;;;;4.70;2.40;;;28.30;81.90;;;;;;6244789;23;20472;-90
2022/06/24 09:42:53;;;;;;;3.43;2.63;;;28.40;82.20;;;;;;6245532;23;20402;-90
2022/06/24 09:45:18;;;;;;;2.60;2.30;;;28.40;87.60;;;;;;6243796;23;20382;-89
2022/06/24 09:47:51;;;;;;;2.03;1.93;;;28.40;90.00;;;;;;6260790;22;20441;-90
2022/06/24 09:50:17;;;;;;;2.13;1.70;;;28.40;90.50;;;;;;6251296;22;20160;-90
2022/06/24 09:52:44;;;;;;;2.33;2.20;;;28.40;91.10;;;;;;6252142;22;20546;-93
2022/06/24 09:55:10;;;;;;;2.13;1.93;;;28.40;90.70;;;;;;6287901;22;20476;-89
2022/06/24 09:57:39;;;;;;;2.00;1.80;;;28.40;91.20;;;;;;6248796;22;20982;-92
2022/06/24 10:02:54;;;;;;;2.37;1.97;;;28.50;91.60;;;;;;6279267;22;20502;-90
2022/06/24 10:05:23;;;;;;;2.43;2.20;;;28.40;91.70;;;;;;6245785;22;20855;-93
2022/06/24 10:07:48;;;;;;;2.87;1.70;;;28.40;88.30;;;;;;6249278;22;20487;-91
2022/06/24 10:10:16;;;;;;;2.90;2.07;;;28.40;89.40;;;;;;6276668;22;20662;-90
2022/06/24 10:12:50;;;;;;;2.23;2.10;;;28.40;89.10;;;;;;6275385;22;20181;-90
2022/06/24 10:15:16;;;;;;;2.63;2.30;;;28.50;82.00;;;;;;6246027;22;20722;-89
2022/06/24 10:17:45;;;;;;;2.70;2.27;;;28.50;86.20;;;;;;6246923;22;20560;-93
2022/06/24 10:20:15;;;;;;;3.60;2.40;;;28.50;89.00;;;;;;6254752;22;20421;-93
2022/06/24 10:22:45;;;;;;;13.67;9.47;;;28.50;82.30;;;;;;6255845;22;20415;-92
2022/06/24 10:25:16;;;;;;;4.10;3.00;;;28.60;79.20;;;;;;6248201;22;20381;-89
2022/06/24 10:28:00;;;;;;;2.10;1.60;;;28.60;84.10;;;;;;6247735;22;20461;-90
2022/06/24 10:30:57;;;;;;;2.30;2.20;;;28.60;84.60;;;;;;6251748;22;20389;-93
2022/06/24 10:33:26;;;;;;;2.77;2.20;;;28.60;82.40;;;;;;6252467;22;20415;-90
2022/06/24 10:36:04;;;;;;;2.30;2.20;;;28.60;85.10;;;;;;6249447;22;20376;-92
2022/06/24 10:38:41;;;;;;;2.37;2.17;;;28.60;83.30;;;;;;6250740;22;20414;-93
2022/06/24 10:41:13;;;;;;;3.93;2.33;;;28.60;84.30;;;;;;6250901;22;20410;-90
2022/06/24 10:43:40;;;;;;;2.13;2.03;;;28.60;87.60;;;;;;6279489;22;20360;-90
2022/06/24 10:46:12;;;;;;;2.20;1.97;;;28.70;88.60;;;;;;6251428;22;20845;-92
2022/06/24 10:48:44;;;;;;;2.97;2.17;;;28.70;83.20;;;;;;6251221;22;20442;-90
2022/06/24 10:51:20;;;;;;;2.63;2.43;;;28.80;81.10;;;;;;6252687;22;20864;-89
2022/06/24 10:54:06;;;;;;;2.10;1.90;;;28.80;81.70;;;;;;6251808;22;20400;-93
2022/06/24 10:56:38;;;;;;;2.27;2.10;;;28.80;84.70;;;;;;6233689;22;20427;-89
2022/06/24 10:59:04;;;;;;;2.70;2.50;;;28.90;82.80;;;;;;6250871;22;20415;-90
2022/06/24 11:01:31;;;;;;;2.60;2.40;;;28.90;84.80;;;;;;6253076;22;20443;-93
2022/06/24 11:03:59;;;;;;;2.03;1.93;;;28.90;85.30;;;;;;6248371;22;20294;-89
2022/06/24 11:06:24;;;;;;;2.70;2.50;;;28.90;88.30;;;;;;6247870;22;20388;-90
2022/06/24 11:08:51;;;;;;;2.23;2.03;;;28.90;84.90;;;;;;6276539;22;20375;-94
2022/06/24 11:11:30;;;;;;;2.67;2.40;;;28.90;80.90;;;;;;6226226;22;20202;-91
2022/06/24 11:13:56;;;;;;;3.20;2.57;;;29.00;81.20;;;;;;6251071;22;20455;-92
2022/06/24 11:16:29;;;;;;;2.33;2.13;;;29.00;80.30;;;;;;6252899;22;20389;-90
2022/06/24 11:18:56;;;;;;;2.70;2.33;;;29.00;84.20;;;;;;6252928;22;20179;-90
2022/06/24 11:21:22;;;;;;;2.50;2.30;;;29.00;82.50;;;;;;6252763;22;20453;-93
2022/06/24 11:23:52;;;;;;;2.20;2.10;;;29.00;85.20;;;;;;6265619;22;20400;-91
2022/06/24 11:26:19;;;;;;;2.70;2.50;;;29.00;82.70;;;;;;6260960;22;20149;-93
2022/06/24 11:28:55;;;;;;;2.43;2.23;;;29.10;84.50;;;;;;6249506;22;20372;-89
2022/06/24 11:31:26;;;;;;;3.20;2.00;;;29.10;80.00;;;;;;6274362;22;20883;-90
2022/06/24 11:34:04;;;;;;;2.17;2.07;;;29.10;76.90;;;;;;6247073;22;20393;-89
2022/06/24 11:36:33;;;;;;;1.70;1.60;;;29.10;76.00;;;;;;6247539;22;20424;-89
2022/06/24 11:39:03;;;;;;;3.70;2.50;;;29.10;79.90;;;;;;6248810;22;20409;-93
2022/06/24 11:41:36;;;;;;;2.17;2.07;;;29.10;84.10;;;;;;6247605;22;20421;-89
2022/06/24 11:44:01;;;;;;;2.10;2.00;;;29.00;84.30;;;;;;6276490;22;20385;-90
2022/06/24 11:46:27;;;;;;;2.60;2.40;;;29.00;86.50;;;;;;6247525;22;20410;-93
2022/06/24 11:49:23;;;;;;;4.07;2.40;;;29.00;87.00;;;;;;6245556;22;20203;-93
2022/06/24 11:51:49;;;;;;;2.30;2.10;;;29.00;88.10;;;;;;6223865;22;20515;-93
2022/06/24 11:54:14;;;;;;;2.40;2.17;;;29.00;82.60;;;;;;6246698;22;20424;-89
2022/06/24 11:56:42;;;;;;;2.70;2.07;;;29.10;84.10;;;;;;6248228;22;20231;-92
2022/06/24 11:59:09;;;;;;;2.60;2.40;;;29.10;83.00;;;;;;6251190;22;20167;-92
2022/06/24 12:01:35;;;;;;;2.47;2.07;;;29.20;80.30;;;;;;6273735;22;20410;-92
2022/06/24 12:04:12;;;;;;;2.27;2.07;;;29.20;83.80;;;;;;6275272;22;20392;-93
2022/06/24 12:06:39;;;;;;;2.33;2.23;;;29.20;80.50;;;;;;6255940;22;20967;-90
2022/06/24 12:09:05;;;;;;;2.20;2.10;;;29.20;78.40;;;;;;6260746;22;20379;-92
2022/06/24 12:11:36;;;;;;;2.30;2.20;;;29.30;79.10;;;;;;6247838;22;20898;-89
2022/06/24 12:14:04;;;;;;;2.50;2.30;;;29.30;80.30;;;;;;6247502;22;20442;-93
2022/06/24 12:17:00;;;;;;;2.30;2.20;;;29.40;81.60;;;;;;6246960;22;20404;-93
2022/06/24 12:19:27;;;;;;;2.30;2.10;;;29.30;84.00;;;;;;6274220;22;20376;-89
2022/06/24 12:22:08;;;;;;;2.60;2.40;;;29.40;85.30;;;;;;6247308;22;20435;-93
2022/06/24 12:24:35;;;;;;;2.33;2.23;;;29.30;87.50;;;;;;6251366;22;20427;-92
2022/06/24 12:27:03;;;;;;;2.20;2.10;;;29.30;86.90;;;;;;6275169;22;20443;-89
2022/06/24 12:29:38;;;;;;;2.30;2.07;;;29.30;84.60;;;;;;6256790;22;20874;-89
2022/06/24 12:32:05;;;;;;;3.23;2.83;;;29.40;83.70;;;;;;6246054;22;20420;-92
2022/06/24 12:34:33;;;;;;;3.30;2.30;;;29.40;80.80;;;;;;6246136;22;20380;-90
2022/06/24 12:37:04;;;;;;;2.13;2.03;;;29.40;82.70;;;;;;6251037;22;20423;-90
2022/06/24 12:39:35;;;;;;;2.53;2.33;;;29.40;82.00;;;;;;6248636;22;20369;-89
2022/06/24 12:42:01;;;;;;;2.80;2.60;;;29.50;80.70;;;;;;6245552;22;20420;-92
2022/06/24 12:44:45;;;;;;;1.90;1.80;;;29.50;78.00;;;;;;6247790;22;20775;-93
2022/06/24 12:52:44;;;;;;;3.10;2.33;;;29.50;78.00;;;;;;6289223;22;20425;-92
2022/06/24 12:55:16;;;;;;;2.60;2.40;;;29.60;75.00;;;;;;6273398;22;20382;-89
2022/06/24 12:57:42;;;;;;;2.80;2.60;;;29.60;74.60;;;;;;6249236;22;20417;-89
2022/06/24 13:00:12;;;;;;;2.43;2.10;;;29.70;73.80;;;;;;6249301;22;20385;-89
2022/06/24 13:02:45;;;;;;;2.60;2.40;;;29.70;75.20;;;;;;6251618;22;20436;-93
2022/06/24 13:05:11;;;;;;;3.00;2.07;;;29.70;75.30;;;;;;6248233;22;20431;-90
2022/06/24 13:07:37;;;;;;;2.60;2.37;;;29.60;76.30;;;;;;6249007;22;20451;-92
2022/06/24 13:10:05;;;;;;;2.70;2.50;;;29.60;78.70;;;;;;6245870;22;20380;-89
2022/06/24 13:12:32;;;;;;;2.43;2.20;;;29.60;80.60;;;;;;6245475;22;20446;-93